Time;durP1;ratioP1;P1;durP2;ratioP2;P2;SDS_P1;SDS_P2;PMS_P1;PMS_P2;Temp;Humidity;BMP_temperature;BMP_pressure;BME280_temperature;BME280_humidity;BME280_pressure;Samples;Min_cycle;Max_cycle;Signal;HPM_P1;HPM_P2
2023/05/09 00:00:52;;;;;;;3.30;1.00;;;;;;;10.55;39.46;100114.79;78034;1301;3050017;-65
2023/05/09 00:03:19;;;;;;;2.30;1.00;;;;;;;10.48;39.85;100116.34;79414;1299;3012945;-63
2023/05/09 00:05:46;;;;;;;2.80;1.20;;;;;;;10.46;39.95;100115.02;79437;1301;3011601;-66
2023/05/09 00:08:14;;;;;;;6.90;1.20;;;;;;;10.51;39.66;100117.39;77982;1301;3029025;-62
2023/05/09 00:10:40;;;;;;;4.20;1.10;;;;;;;10.53;39.48;100119.73;79234;1301;3013070;-66
2023/05/09 00:13:07;;;;;;;2.20;1.00;;;;;;;10.55;39.67;100116.69;79400;1298;3011959;-64
2023/05/09 00:15:35;;;;;;;3.90;1.20;;;;;;;10.47;39.97;100119.88;77981;1301;3028292;-63
2023/05/09 00:18:02;;;;;;;3.30;1.10;;;;;;;10.44;39.99;100120.23;79353;1299;3013701;-63
2023/05/09 00:20:29;;;;;;;2.40;1.40;;;;;;;10.46;40.04;100118.88;79190;1301;3011814;-65
2023/05/09 00:22:56;;;;;;;1.50;1.00;;;;;;;10.40;40.05;100117.78;78279;1298;3028338;-64
2023/05/09 00:25:23;;;;;;;2.50;0.90;;;;;;;10.38;39.89;100120.14;79196;1299;3018454;-63
2023/05/09 00:27:49;;;;;;;2.70;1.20;;;;;;;10.42;39.64;100119.09;79281;1301;3013066;-64
2023/05/09 00:30:17;;;;;;;2.40;0.90;;;;;;;10.37;39.60;100120.02;78057;1299;3025320;-66
2023/05/09 00:32:44;;;;;;;4.60;0.90;;;;;;;10.34;39.89;100119.78;79493;1299;3013343;-64
2023/05/09 00:35:11;;;;;;;1.60;0.80;;;;;;;10.38;39.57;100117.15;79732;1295;3011685;-64
2023/05/09 00:37:39;;;;;;;2.30;1.10;;;;;;;10.32;39.61;100120.94;78145;1301;3028397;-66
2023/05/09 00:40:08;;;;;;;2.20;1.10;;;;;;;10.35;39.65;100123.27;79609;1301;3020875;-61
2023/05/09 00:42:35;;;;;;;2.40;0.90;;;;;;;10.41;39.61;100122.26;79243;1296;3011454;-62
2023/05/09 00:45:03;;;;;;;2.40;1.20;;;;;;;10.37;39.87;100118.09;78201;1300;3049625;-64
2023/05/09 00:47:32;;;;;;;9.00;1.20;;;;;;;10.38;39.87;100115.08;79473;1296;3013795;-64
2023/05/09 00:50:01;;;;;;;3.20;1.10;;;;;;;10.39;39.71;100118.88;78890;1301;3011647;-63
2023/05/09 00:52:27;;;;;;;1.50;0.80;;;;;;;10.37;39.73;100109.48;79449;1296;3013724;-62
2023/05/09 00:54:54;;;;;;;2.20;1.00;;;;;;;10.39;39.71;100115.36;79310;1301;3013520;-64
2023/05/09 00:57:22;;;;;;;1.70;1.20;;;;;;;10.33;39.91;100115.48;78292;1295;3026830;-66
2023/05/09 00:59:49;;;;;;;3.90;1.10;;;;;;;10.29;40.03;100114.95;79719;1294;3013314;-63
2023/05/09 01:02:18;;;;;;;1.40;0.70;;;;;;;10.30;40.09;100116.67;79589;1298;3012372;-65
2023/05/09 01:04:46;;;;;;;5.30;1.10;;;;;;;10.26;40.06;100116.48;78303;1298;3050393;-63
2023/05/09 01:07:45;;;;;;;2.80;1.10;;;;;;;10.29;40.03;100118.43;79505;1300;3013269;-62
2023/05/09 01:10:19;;;;;;;1.70;0.90;;;;;;;10.33;39.84;100118.26;78326;1301;3069820;-64
2023/05/09 01:12:53;;;;;;;1.50;0.90;;;;;;;10.31;40.08;100117.51;79628;1296;3013163;-64
2023/05/09 01:15:34;;;;;;;2.30;1.00;;;;;;;10.24;40.21;100119.77;78192;1296;3056047;-64
2023/05/09 01:18:05;;;;;;;2.50;1.10;;;;;;;10.19;40.42;100117.90;78365;1295;3051041;-65
2023/05/09 01:20:45;;;;;;;1.60;1.00;;;;;;;10.21;40.21;100120.61;79728;1298;3011590;-65
2023/05/09 01:23:51;;;;;;;3.30;0.90;;;;;;;10.21;40.19;100121.46;78581;1298;3049802;-65
2023/05/09 01:26:25;;;;;;;2.90;1.00;;;;;;;10.16;40.38;100119.09;78287;1297;3052426;-62
2023/05/09 01:29:10;;;;;;;1.80;1.00;;;;;;;10.13;40.35;100118.88;79491;1298;3011504;-63
2023/05/09 01:31:40;;;;;;;1.40;0.90;;;;;;;10.13;40.37;100115.02;78267;1300;3069000;-63
2023/05/09 01:34:07;;;;;;;1.20;0.80;;;;;;;10.15;40.38;100113.55;79605;1298;3011817;-63
2023/05/09 01:36:33;;;;;;;1.20;0.90;;;;;;;10.16;40.19;100113.64;79431;1296;3011547;-64
2023/05/09 01:39:01;;;;;;;1.80;1.10;;;;;;;10.16;40.10;100117.67;78204;1301;3053260;-62
2023/05/09 01:41:29;;;;;;;2.40;1.30;;;;;;;10.06;40.30;100122.54;79575;1297;3012902;-65
2023/05/09 01:43:56;;;;;;;1.30;0.90;;;;;;;10.09;40.28;100118.02;79529;1298;3012077;-65
2023/05/09 01:46:24;;;;;;;2.70;1.10;;;;;;;10.04;40.57;100123.34;78273;1296;3069631;-63
2023/05/09 01:48:50;;;;;;;3.90;0.90;;;;;;;10.03;40.54;100118.46;79466;1299;3018529;-65
2023/05/09 01:51:17;;;;;;;3.30;1.40;;;;;;;10.11;40.19;100116.36;79598;1298;3011631;-63
2023/05/09 01:53:45;;;;;;;2.20;1.10;;;;;;;10.14;40.08;100122.88;78048;1295;3025775;-61
2023/05/09 01:56:11;;;;;;;2.90;1.10;;;;;;;10.13;40.28;100119.23;79356;1311;3013182;-64
2023/05/09 01:58:38;;;;;;;3.20;1.00;;;;;;;10.14;40.26;100117.26;79357;1301;3012796;-63
2023/05/09 02:01:06;;;;;;;1.40;1.00;;;;;;;10.15;39.84;100119.85;78105;1301;3028861;-64
2023/05/09 02:03:33;;;;;;;1.30;1.00;;;;;;;10.12;40.09;100126.82;79591;1295;3013306;-64
2023/05/09 02:06:00;;;;;;;2.60;1.00;;;;;;;10.08;40.31;100123.48;79352;1298;3012145;-66
2023/05/09 02:08:27;;;;;;;3.40;1.10;;;;;;;10.07;40.24;100123.90;78182;1302;3025755;-64
2023/05/09 02:10:54;;;;;;;2.40;1.20;;;;;;;10.06;40.34;100123.06;79425;1299;3018556;-67
2023/05/09 02:13:21;;;;;;;3.00;0.80;;;;;;;10.09;40.00;100126.09;79390;1301;3011684;-66
2023/05/09 02:15:49;;;;;;;1.80;1.10;;;;;;;10.04;40.19;100125.43;78145;1296;3028965;-64
2023/05/09 02:18:16;;;;;;;2.30;1.00;;;;;;;10.06;40.19;100123.42;79463;1300;3013179;-65
2023/05/09 02:20:42;;;;;;;2.40;1.00;;;;;;;10.06;40.27;100119.92;79349;1301;3011875;-64
2023/05/09 02:23:10;;;;;;;1.60;0.90;;;;;;;10.08;40.04;100114.71;78416;1298;3026567;-64
2023/05/09 02:25:37;;;;;;;1.70;1.20;;;;;;;10.09;39.96;100118.20;79394;1304;3012883;-64
2023/05/09 02:28:06;;;;;;;2.40;1.00;;;;;;;10.06;39.93;100123.90;79259;1301;3011504;-64
2023/05/09 02:30:38;;;;;;;2.00;1.10;;;;;;;10.07;39.97;100126.67;78167;1300;3069721;-64
2023/05/09 02:33:06;;;;;;;2.60;1.00;;;;;;;10.03;40.29;100126.88;79582;1301;3011741;-65
2023/05/09 02:35:34;;;;;;;1.50;0.90;;;;;;;9.98;40.53;100128.51;78077;1296;3055628;-63
2023/05/09 02:38:01;;;;;;;6.60;1.00;;;;;;;9.93;40.61;100125.08;79734;1301;3014221;-64
2023/05/09 02:40:29;;;;;;;2.30;1.10;;;;;;;9.95;40.56;100130.27;79633;1302;3011854;-61
2023/05/09 02:42:57;;;;;;;1.60;0.90;;;;;;;10.01;40.33;100126.77;78335;1301;3053443;-63
2023/05/09 02:45:23;;;;;;;1.60;0.90;;;;;;;10.04;40.40;100126.48;79582;1301;3015971;-63
2023/05/09 02:47:50;;;;;;;2.20;0.80;;;;;;;10.03;40.47;100124.80;79540;1301;3012670;-65
2023/05/09 02:50:18;;;;;;;2.10;1.10;;;;;;;10.08;40.23;100125.42;78298;1301;3026414;-63
2023/05/09 02:52:45;;;;;;;5.10;1.10;;;;;;;10.07;40.39;100127.39;79463;1295;3013526;-65
2023/05/09 02:55:11;;;;;;;1.80;1.50;;;;;;;10.02;40.43;100125.17;79377;1299;3011850;-63
2023/05/09 02:57:40;;;;;;;2.60;1.10;;;;;;;10.03;40.46;100126.02;78304;1297;3051898;-65
2023/05/09 03:00:08;;;;;;;2.70;0.80;;;;;;;9.99;40.65;100127.59;79589;1300;3020534;-65
2023/05/09 03:02:36;;;;;;;1.10;0.80;;;;;;;9.97;40.84;100126.64;79686;1294;3011632;-66
2023/05/09 03:05:05;;;;;;;1.30;0.90;;;;;;;10.01;40.60;100123.13;78354;1296;3057328;-63
2023/05/09 03:07:33;;;;;;;1.60;1.10;;;;;;;10.03;40.42;100128.62;79644;1298;3012956;-63
2023/05/09 03:09:59;;;;;;;2.30;1.00;;;;;;;10.02;40.51;100128.83;79537;1294;3013647;-66
2023/05/09 03:12:28;;;;;;;1.90;1.00;;;;;;;10.04;40.68;100132.63;78444;1298;3052140;-64
2023/05/09 03:14:55;;;;;;;1.40;0.90;;;;;;;10.05;40.50;100130.81;79701;1298;3021068;-65
2023/05/09 03:17:22;;;;;;;4.30;0.90;;;;;;;10.07;40.51;100139.67;79749;1295;3011650;-64
2023/05/09 03:19:50;;;;;;;3.70;1.20;;;;;;;10.02;40.87;100140.41;78409;1296;3026328;-65
2023/05/09 03:22:16;;;;;;;3.10;0.90;;;;;;;10.11;40.51;100144.02;79671;1295;3012913;-66
2023/05/09 03:24:52;;;;;;;;;;;;;;;10.16;40.41;100151.67;78272;1298;3050063;-65
2023/05/09 03:27:18;;;;;;;2.80;1.20;;;;;;;10.14;40.56;100155.05;79556;1298;3013561;-64
2023/05/09 03:29:45;;;;;;;2.20;1.10;;;;;;;10.14;40.76;100154.73;79489;1299;3013589;-65
2023/05/09 03:32:14;;;;;;;1.60;0.90;;;;;;;10.24;40.40;100156.72;78396;1298;3050665;-62
2023/05/09 03:34:41;;;;;;;2.90;1.10;;;;;;;10.28;40.46;100155.79;79549;1298;3018462;-65
2023/05/09 03:37:07;;;;;;;3.70;0.80;;;;;;;10.29;40.24;100159.45;79692;1298;3011895;-64
2023/05/09 03:39:38;;;;;;;1.90;1.00;;;;;;;10.25;40.17;100157.89;78908;1298;3049853;-65
2023/05/09 03:42:04;;;;;;;1.90;1.10;;;;;;;10.22;40.39;100159.75;80833;1299;3012862;-65
2023/05/09 03:44:33;;;;;;;1.90;0.90;;;;;;;10.31;40.26;100163.91;80969;1295;3011946;-68
2023/05/09 03:47:01;;;;;;;2.70;1.10;;;;;;;10.29;40.23;100163.65;78439;1296;3051107;-66
2023/05/09 03:49:29;;;;;;;2.00;1.00;;;;;;;10.29;40.53;100165.90;79622;1298;3013768;-63
2023/05/09 03:51:56;;;;;;;2.80;1.10;;;;;;;10.22;40.96;100169.75;79443;1295;3011627;-65
2023/05/09 03:54:25;;;;;;;2.20;1.30;;;;;;;10.19;40.89;100165.70;77979;1296;3049756;-65
2023/05/09 03:56:52;;;;;;;2.00;1.10;;;;;;;10.28;40.94;100171.20;79449;1301;3013147;-65
2023/05/09 03:59:19;;;;;;;2.80;1.10;;;;;;;10.24;41.37;100173.84;79597;1300;3013399;-66
2023/05/09 04:01:48;;;;;;;2.30;1.20;;;;;;;10.21;41.45;100177.84;78313;1301;3051731;-64
2023/05/09 04:04:14;;;;;;;2.60;1.20;;;;;;;10.26;41.59;100177.26;79608;1295;3018453;-65
2023/05/09 04:06:41;;;;;;;2.70;1.10;;;;;;;10.28;41.60;100178.41;79416;1311;3013276;-64
2023/05/09 04:09:10;;;;;;;1.50;1.00;;;;;;;10.30;41.63;100179.66;78328;1300;3049397;-66
2023/05/09 04:11:37;;;;;;;2.00;1.10;;;;;;;10.29;41.73;100183.08;79879;1298;3012657;-65
2023/05/09 04:14:06;;;;;;;1.70;1.20;;;;;;;10.25;41.87;100182.88;79546;1301;3011774;-62
2023/05/09 04:16:37;;;;;;;1.70;0.90;;;;;;;10.37;41.32;100188.64;78291;1301;3052409;-67
2023/05/09 04:19:03;;;;;;;2.60;1.20;;;;;;;10.39;41.55;100189.45;79568;1302;3011654;-63
2023/05/09 04:21:30;;;;;;;2.50;1.30;;;;;;;10.30;42.07;100187.40;79544;1299;3013321;-65
2023/05/09 04:24:00;;;;;;;4.70;1.30;;;;;;;10.41;41.63;100190.38;78311;1297;3049468;-65
2023/05/09 04:26:37;;;;;;;1.90;1.20;;;;;;;10.45;41.68;100189.85;79059;1296;3011912;-66
2023/05/09 04:29:04;;;;;;;3.60;1.10;;;;;;;10.51;41.44;100194.31;79501;1295;3011866;-65
2023/05/09 04:31:32;;;;;;;3.20;0.90;;;;;;;10.50;41.52;100195.23;79421;1301;3011528;-65
2023/05/09 04:34:00;;;;;;;1.60;1.10;;;;;;;10.40;41.91;100192.40;78495;1298;3051499;-64
2023/05/09 04:36:28;;;;;;;3.90;1.30;;;;;;;10.38;42.05;100194.73;79645;1296;3013165;-66
2023/05/09 04:38:58;;;;;;;1.80;1.00;;;;;;;10.32;42.62;100192.02;79090;1298;3011811;-65
2023/05/09 04:41:26;;;;;;;3.70;1.00;;;;;;;10.40;42.52;100191.17;79323;1301;3012920;-68
2023/05/09 04:43:53;;;;;;;3.50;1.00;;;;;;;10.59;42.00;100196.17;79439;1296;3011910;-64
2023/05/09 04:46:21;;;;;;;4.20;1.30;;;;;;;10.66;41.87;100193.55;78186;1302;3052133;-65
2023/05/09 04:48:48;;;;;;;3.40;1.20;;;;;;;10.74;41.77;100192.30;79539;1295;3012837;-67
2023/05/09 04:51:14;;;;;;;3.70;1.10;;;;;;;10.77;41.89;100191.80;79655;1295;3011266;-66
2023/05/09 04:53:42;;;;;;;1.90;0.90;;;;;;;10.88;41.61;100188.45;78341;1298;3025910;-66
2023/05/09 04:56:10;;;;;;;1.40;0.90;;;;;;;10.96;41.43;100189.80;79694;1301;3014671;-63
2023/05/09 04:58:38;;;;;;;2.70;1.10;;;;;;;10.98;41.47;100190.38;79608;1295;3011684;-64
2023/05/09 05:01:06;;;;;;;1.90;1.00;;;;;;;11.04;41.44;100191.29;78597;1298;3052412;-66
2023/05/09 05:03:33;;;;;;;8.90;1.20;;;;;;;11.01;42.02;100193.38;79438;1301;3018116;-65
2023/05/09 05:06:00;;;;;;;2.40;1.30;;;;;;;11.00;42.16;100196.27;79792;1294;3011741;-68
2023/05/09 05:08:31;;;;;;;7.00;1.20;;;;;;;11.02;42.23;100197.04;78242;1301;3049854;-65
2023/05/09 05:10:58;;;;;;;2.80;0.90;;;;;;;11.13;42.03;100194.57;79372;1295;3013784;-65
2023/05/09 05:13:25;;;;;;;3.30;1.40;;;;;;;11.26;41.63;100194.08;79608;1295;3011769;-66
2023/05/09 05:15:57;;;;;;;1.60;1.20;;;;;;;11.22;41.69;100196.02;78464;1295;3053354;-64
2023/05/09 05:18:24;;;;;;;5.20;1.30;;;;;;;11.28;41.93;100196.61;79554;1300;3013155;-65
2023/05/09 05:20:50;;;;;;;2.80;1.10;;;;;;;11.40;41.68;100198.41;79674;1298;3013199;-60
2023/05/09 05:23:18;;;;;;;5.50;1.20;;;;;;;11.36;41.68;100200.73;78312;1296;3049563;-62
2023/05/09 05:25:45;;;;;;;3.60;1.20;;;;;;;11.35;41.85;100204.83;79422;1296;3014004;-61
2023/05/09 05:28:12;;;;;;;1.20;1.00;;;;;;;11.46;41.61;100205.10;79407;1298;3011621;-63
2023/05/09 05:30:41;;;;;;;1.90;1.00;;;;;;;11.54;41.70;100206.64;78279;1297;3053421;-63
2023/05/09 05:33:08;;;;;;;2.70;1.40;;;;;;;11.47;41.70;100206.47;79671;1298;3013082;-63
2023/05/09 05:35:35;;;;;;;3.20;1.40;;;;;;;11.54;41.71;100207.17;79744;1295;3011633;-61
2023/05/09 05:38:03;;;;;;;3.00;1.10;;;;;;;11.60;41.65;100207.55;78130;1301;3024959;-63
2023/05/09 05:40:29;;;;;;;2.00;0.90;;;;;;;11.57;41.99;100206.29;79420;1294;3020752;-63
2023/05/09 05:42:57;;;;;;;2.40;1.10;;;;;;;11.54;42.13;100202.04;79365;1298;3011975;-62
2023/05/09 05:45:25;;;;;;;2.50;1.00;;;;;;;11.64;42.01;100203.63;77997;1301;3028509;-62
2023/05/09 05:47:55;;;;;;;3.30;1.20;;;;;;;11.70;41.98;100204.34;79311;1299;3013979;-60
2023/05/09 05:50:23;;;;;;;2.50;1.20;;;;;;;11.78;41.98;100206.42;78238;1295;3028777;-63
2023/05/09 05:52:50;;;;;;;2.30;1.20;;;;;;;11.92;41.75;100210.75;79473;1297;3013531;-65
2023/05/09 05:55:17;;;;;;;4.50;1.20;;;;;;;12.01;41.64;100206.98;79374;1298;3011548;-61
2023/05/09 05:57:46;;;;;;;2.70;1.20;;;;;;;12.08;41.37;100209.40;78060;1300;3026114;-61
2023/05/09 06:00:15;;;;;;;4.50;1.40;;;;;;;12.12;41.32;100211.13;79592;1298;3013923;-61
2023/05/09 06:02:47;;;;;;;5.10;1.30;;;;;;;12.16;41.31;100210.70;78277;1297;3051605;-62
2023/05/09 06:05:20;;;;;;;4.60;1.20;;;;;;;12.17;41.54;100209.44;79666;1293;3011495;-62
2023/05/09 06:07:48;;;;;;;5.00;1.20;;;;;;;12.20;41.51;100210.81;78233;1298;3052384;-65
2023/05/09 06:10:15;;;;;;;3.10;1.30;;;;;;;12.38;41.02;100204.72;79520;1297;3013650;-60
2023/05/09 06:12:44;;;;;;;5.80;1.20;;;;;;;12.49;40.80;100201.87;79500;1294;3012268;-59
2023/05/09 06:15:11;;;;;;;2.30;1.00;;;;;;;12.54;40.74;100205.42;78339;1298;3050746;-61
2023/05/09 06:17:41;;;;;;;3.00;1.20;;;;;;;12.52;40.91;100203.63;79558;1295;3011836;-62
2023/05/09 06:20:10;;;;;;;6.10;1.50;;;;;;;12.54;40.86;100209.31;78859;1298;3011599;-61
2023/05/09 06:22:36;;;;;;;2.70;1.40;;;;;;;12.55;41.09;100206.05;79599;1295;3018509;-60
2023/05/09 06:25:03;;;;;;;3.60;1.40;;;;;;;12.56;41.59;100204.05;79509;1298;3011862;-64
2023/05/09 06:27:31;;;;;;;6.50;1.70;;;;;;;12.59;41.08;100204.97;78302;1298;3026600;-65
2023/05/09 06:29:58;;;;;;;3.40;1.60;;;;;;;12.65;40.81;100206.73;79249;1296;3012901;-60
2023/05/09 06:32:25;;;;;;;3.20;1.50;;;;;;;12.84;40.37;100210.55;79549;1295;3013288;-59
2023/05/09 06:34:53;;;;;;;2.40;1.30;;;;;;;12.99;40.25;100204.26;78127;1297;3028460;-69
2023/05/09 06:37:19;;;;;;;4.00;1.30;;;;;;;13.03;40.05;100202.24;79502;1299;3013497;-62
2023/05/09 06:39:46;;;;;;;3.00;1.60;;;;;;;13.00;40.50;100203.13;79443;1295;3011882;-61
2023/05/09 06:42:14;;;;;;;4.60;1.50;;;;;;;13.10;40.03;100205.33;78086;1298;3026543;-64
2023/05/09 06:44:42;;;;;;;4.90;1.60;;;;;;;13.27;40.10;100208.41;79556;1298;3013149;-63
2023/05/09 06:47:09;;;;;;;6.80;1.50;;;;;;;13.24;39.55;100206.79;79418;1296;3011476;-63
2023/05/09 06:49:37;;;;;;;6.20;1.40;;;;;;;13.31;39.84;100206.00;78293;1298;3052724;-62
2023/05/09 06:52:03;;;;;;;4.30;1.40;;;;;;;13.34;39.87;100206.73;79458;1297;3013021;-64
2023/05/09 06:54:30;;;;;;;6.60;1.40;;;;;;;13.53;39.64;100206.15;79260;1297;3011489;-62
2023/05/09 06:56:58;;;;;;;3.80;1.20;;;;;;;13.63;39.37;100206.60;78040;1298;3024930;-62
2023/05/09 06:59:25;;;;;;;4.50;1.40;;;;;;;13.64;39.45;100201.98;79348;1298;3013166;-63
2023/05/09 07:01:52;;;;;;;5.30;1.30;;;;;;;13.68;39.81;100203.48;79404;1294;3011765;-63
2023/05/09 07:04:20;;;;;;;9.60;1.50;;;;;;;13.79;39.29;100198.04;78285;1298;3053832;-62
2023/05/09 07:06:46;;;;;;;3.70;1.40;;;;;;;13.82;39.26;100197.50;79347;1297;3013790;-64
2023/05/09 07:09:16;;;;;;;4.70;1.70;;;;;;;13.88;39.27;100200.08;79371;1295;3011480;-61
2023/05/09 07:11:45;;;;;;;2.50;1.00;;;;;;;13.83;39.59;100198.18;78253;1298;3048399;-63
2023/05/09 07:14:11;;;;;;;2.90;1.60;;;;;;;13.77;39.33;100199.94;79580;1295;3014229;-61
2023/05/09 07:16:38;;;;;;;5.20;1.20;;;;;;;13.92;39.03;100201.27;79397;1297;3013243;-60
2023/05/09 07:19:06;;;;;;;4.80;1.70;;;;;;;13.89;39.19;100198.68;78090;1298;3053458;-60
2023/05/09 07:21:34;;;;;;;2.30;1.40;;;;;;;13.98;39.02;100197.58;79437;1295;3013369;-63
2023/05/09 07:24:00;;;;;;;5.50;1.60;;;;;;;13.99;39.15;100194.14;79517;1295;3011669;-62
2023/05/09 07:26:28;;;;;;;5.30;1.50;;;;;;;13.97;39.49;100193.05;78216;1298;3047961;-63
2023/05/09 07:28:55;;;;;;;3.60;1.80;;;;;;;14.15;39.17;100197.02;79638;1295;3020502;-60
2023/05/09 07:31:21;;;;;;;2.90;1.80;;;;;;;14.21;38.62;100196.44;79504;1295;3011738;-59
2023/05/09 07:33:49;;;;;;;3.20;1.70;;;;;;;14.39;38.15;100186.48;78292;1297;3028675;-62
2023/05/09 07:36:16;;;;;;;2.30;1.50;;;;;;;14.38;38.36;100182.30;79429;1298;3019332;-63
2023/05/09 07:38:42;;;;;;;3.00;1.70;;;;;;;14.43;38.66;100179.18;79360;1295;3011573;-63
2023/05/09 07:41:10;;;;;;;2.70;1.60;;;;;;;14.50;38.64;100180.47;78380;1294;3027754;-62
2023/05/09 07:43:37;;;;;;;4.40;1.80;;;;;;;14.58;38.45;100179.77;79566;1298;3013668;-62
2023/05/09 07:46:04;;;;;;;5.60;1.70;;;;;;;14.61;38.27;100182.59;79411;1294;3011644;-64
2023/05/09 07:48:32;;;;;;;3.10;1.70;;;;;;;14.67;38.09;100173.58;78388;1295;3028464;-62
2023/05/09 07:50:58;;;;;;;4.90;1.70;;;;;;;14.71;38.21;100172.77;79450;1298;3013541;-60
2023/05/09 07:53:25;;;;;;;3.40;1.60;;;;;;;14.73;38.28;100170.17;79518;1297;3011835;-62
2023/05/09 07:55:53;;;;;;;3.40;1.80;;;;;;;14.83;38.10;100169.50;78310;1298;3026889;-62
2023/05/09 07:58:20;;;;;;;4.90;1.70;;;;;;;14.86;38.36;100167.70;79366;1295;3021389;-60
2023/05/09 08:00:47;;;;;;;3.10;1.80;;;;;;;14.71;38.24;100165.02;79482;1296;3011962;-62
2023/05/09 08:03:15;;;;;;;4.70;1.60;;;;;;;14.96;38.00;100163.73;78305;1298;3028495;-64
2023/05/09 08:05:41;;;;;;;6.30;1.40;;;;;;;15.11;37.50;100157.25;79535;1298;3020943;-60
2023/05/09 08:08:08;;;;;;;5.10;1.80;;;;;;;15.17;37.01;100157.14;79432;1298;3011802;-59
2023/05/09 08:10:37;;;;;;;8.70;1.80;;;;;;;15.25;36.97;100157.15;78338;1295;3049209;-63
2023/05/09 08:13:03;;;;;;;3.60;1.60;;;;;;;15.31;36.59;100156.41;79488;1296;3020828;-61
2023/05/09 08:15:30;;;;;;;10.90;1.90;;;;;;;15.37;36.53;100159.01;79471;1298;3011935;-61
2023/05/09 08:17:58;;;;;;;10.00;1.90;;;;;;;15.42;36.04;100156.11;78332;1298;3027290;-61
2023/05/09 08:20:25;;;;;;;8.30;1.60;;;;;;;15.40;35.71;100151.35;79415;1297;3013715;-61
2023/05/09 08:22:51;;;;;;;4.50;1.70;;;;;;;15.53;35.64;100149.92;79412;1296;3013853;-63
2023/05/09 08:25:19;;;;;;;4.70;2.20;;;;;;;15.53;35.74;100146.73;78241;1297;3026093;-62
2023/05/09 08:27:46;;;;;;;5.20;1.60;;;;;;;15.43;36.10;100149.21;79493;1298;3013065;-61
2023/05/09 08:30:13;;;;;;;3.70;1.40;;;;;;;15.68;35.18;100145.51;79536;1297;3011557;-62
2023/05/09 08:32:41;;;;;;;3.00;1.40;;;;;;;15.85;34.23;100151.52;78214;1298;3052853;-63
2023/05/09 08:35:08;;;;;;;2.10;1.20;;;;;;;15.91;34.29;100147.94;80414;1297;3013082;-64
2023/05/09 08:37:36;;;;;;;5.00;1.70;;;;;;;15.92;33.99;100148.06;79445;1294;3011370;-63
2023/05/09 08:40:06;;;;;;;8.80;1.40;;;;;;;15.91;34.10;100146.52;78349;1298;3049183;-60
2023/05/09 08:42:35;;;;;;;2.80;1.60;;;;;;;15.92;34.51;100143.84;79668;1295;3011786;-62
2023/05/09 08:45:08;;;;;;;4.10;1.40;;;;;;;16.02;34.24;100139.80;78341;1298;3049777;-62
2023/05/09 08:47:38;;;;;;;3.70;1.50;;;;;;;16.17;34.09;100136.18;79556;1297;3012153;-61
2023/05/09 08:50:06;;;;;;;2.10;1.30;;;;;;;16.11;34.11;100133.83;78164;1300;3053286;-62
2023/05/09 08:52:34;;;;;;;3.20;1.00;;;;;;;16.28;34.02;100135.76;79454;1295;3012983;-61
2023/05/09 08:55:01;;;;;;;2.70;1.40;;;;;;;16.41;33.10;100133.20;79511;1298;3013927;-62
2023/05/09 08:57:30;;;;;;;5.00;1.40;;;;;;;16.37;32.90;100132.58;78257;1298;3049026;-60
2023/05/09 08:59:57;;;;;;;6.40;1.50;;;;;;;16.25;32.96;100126.63;79355;1296;3011858;-62
2023/05/09 09:02:23;;;;;;;3.00;1.60;;;;;;;16.03;33.10;100130.70;79453;1298;3011548;-62
2023/05/09 09:04:53;;;;;;;1.50;1.00;;;;;;;15.92;33.01;100131.61;78307;1294;3054579;-63
2023/05/09 09:07:19;;;;;;;5.50;1.70;;;;;;;15.82;33.42;100130.38;79371;1295;3013378;-61
2023/05/09 09:09:46;;;;;;;4.40;1.20;;;;;;;15.76;33.15;100130.09;79570;1295;3011605;-59
2023/05/09 09:12:15;;;;;;;4.40;1.00;;;;;;;15.80;32.79;100126.31;78227;1300;3049551;-61
2023/05/09 09:14:48;;;;;;;2.40;1.00;;;;;;;15.88;32.27;100117.47;79457;1296;3012745;-60
2023/05/09 09:17:18;;;;;;;3.20;1.30;;;;;;;15.86;31.69;100116.14;78247;1300;3050648;-65
2023/05/09 09:19:47;;;;;;;5.10;1.10;;;;;;;15.87;31.66;100110.58;79462;1301;3011764;-64
2023/05/09 09:22:17;;;;;;;1.30;1.00;;;;;;;16.04;30.84;100110.98;78266;1297;3025753;-64
2023/05/09 09:24:43;;;;;;;1.90;1.10;;;;;;;16.02;30.65;100112.02;79530;1294;3013019;-63
2023/05/09 09:27:10;;;;;;;3.40;0.80;;;;;;;16.02;30.11;100102.45;79425;1295;3011492;-63
2023/05/09 09:29:38;;;;;;;3.10;1.10;;;;;;;15.88;29.92;100102.23;78287;1298;3049623;-63
2023/05/09 09:32:05;;;;;;;2.00;1.20;;;;;;;15.65;29.61;100106.87;79485;1295;3013035;-62
2023/05/09 09:34:32;;;;;;;2.70;0.80;;;;;;;15.80;29.72;100100.86;79528;1298;3011644;-62
2023/05/09 09:37:00;;;;;;;2.50;0.80;;;;;;;15.77;29.76;100106.38;78199;1298;3053702;-62
2023/05/09 09:39:26;;;;;;;6.40;1.10;;;;;;;15.80;29.93;100106.02;79460;1298;3013023;-62
2023/05/09 09:41:53;;;;;;;3.40;0.80;;;;;;;15.62;30.17;100109.18;79497;1298;3011585;-62
2023/05/09 09:44:21;;;;;;;1.20;0.80;;;;;;;15.68;30.15;100109.13;78211;1297;3028515;-62
2023/05/09 09:46:57;;;;;;;2.60;0.80;;;;;;;15.80;29.39;100108.46;79534;1298;3011545;-60
2023/05/09 09:49:25;;;;;;;1.60;0.70;;;;;;;15.81;29.35;100106.46;78320;1301;3052537;-60
2023/05/09 09:51:53;;;;;;;2.50;0.80;;;;;;;15.96;29.40;100103.66;79461;1300;3013497;-60
2023/05/09 09:54:20;;;;;;;2.70;0.80;;;;;;;16.23;29.38;100097.61;79386;1297;3013201;-62
2023/05/09 09:56:49;;;;;;;6.60;0.80;;;;;;;16.28;29.34;100095.56;78303;1295;3056634;-60
2023/05/09 09:59:17;;;;;;;1.10;0.80;;;;;;;16.42;28.90;100092.10;79643;1297;3015070;-59
2023/05/09 10:02:03;;;;;;;1.20;0.90;;;;;;;16.43;28.76;100093.98;79463;1295;3011471;-61
2023/05/09 10:04:33;;;;;;;6.20;1.20;;;;;;;16.63;28.84;100091.61;78271;1297;3052843;-61
2023/05/09 10:07:04;;;;;;;1.00;0.70;;;;;;;16.68;28.74;100091.56;79570;1298;3013099;-60
2023/05/09 10:09:33;;;;;;;5.70;1.00;;;;;;;16.78;28.40;100093.30;78413;1295;3069017;-62
2023/05/09 10:12:01;;;;;;;4.80;1.00;;;;;;;16.71;28.12;100096.81;79372;1295;3014494;-63
2023/05/09 10:14:29;;;;;;;4.30;0.70;;;;;;;16.70;27.97;100093.02;79534;1296;3011861;-61
2023/05/09 10:16:57;;;;;;;3.20;0.90;;;;;;;16.70;28.23;100091.73;78124;1298;3053079;-62
2023/05/09 10:19:28;;;;;;;1.50;0.80;;;;;;;16.76;28.29;100088.33;79330;1301;3018507;-62
2023/05/09 10:22:07;;;;;;;3.00;0.80;;;;;;;16.64;28.55;100090.25;78152;1298;3053469;-59
2023/05/09 10:24:46;;;;;;;4.50;1.00;;;;;;;16.63;28.28;100089.27;78195;1295;3070112;-63
2023/05/09 10:27:14;;;;;;;1.70;0.90;;;;;;;16.50;28.53;100095.05;78296;1298;3051680;-62
2023/05/09 10:29:44;;;;;;;2.30;1.00;;;;;;;16.28;28.81;100093.85;79350;1294;3019651;-61
2023/05/09 10:32:24;;;;;;;5.10;1.20;;;;;;;16.28;28.88;100098.10;78536;1295;3053198;-63
2023/05/09 10:34:53;;;;;;;6.40;1.20;;;;;;;16.41;28.77;100092.36;78247;1296;3049155;-64
2023/05/09 10:37:20;;;;;;;1.40;0.90;;;;;;;16.47;28.88;100090.86;79396;1300;3012981;-60
2023/05/09 10:39:51;;;;;;;2.30;1.10;;;;;;;16.78;28.09;100090.94;79390;1295;3012952;-61
2023/05/09 10:42:19;;;;;;;1.40;0.90;;;;;;;16.83;27.75;100089.14;78170;1298;3051435;-62
2023/05/09 10:44:47;;;;;;;1.80;0.90;;;;;;;16.74;27.65;100090.74;79316;1300;3019159;-63
2023/05/09 10:47:13;;;;;;;5.40;1.10;;;;;;;16.84;27.61;100090.52;79243;1299;3011824;-63
2023/05/09 10:49:44;;;;;;;5.30;1.30;;;;;;;16.71;27.66;100092.20;78053;1300;3027934;-68
2023/05/09 10:52:11;;;;;;;4.00;1.10;;;;;;;16.58;27.28;100094.61;79329;1296;3013159;-61
2023/05/09 10:54:40;;;;;;;5.30;1.30;;;;;;;16.63;27.85;100094.77;78827;1296;3013183;-62
2023/05/09 10:57:08;;;;;;;4.00;1.00;;;;;;;16.92;27.69;100091.02;79265;1300;3013198;-61
2023/05/09 10:59:39;;;;;;;2.70;1.40;;;;;;;17.17;27.32;100092.73;77031;1295;3013748;-61
2023/05/09 11:02:13;;;;;;;1.80;1.10;;;;;;;17.32;26.98;100094.24;79422;1295;3011674;-62
2023/05/09 11:04:41;;;;;;;3.00;0.80;;;;;;;17.41;26.90;100089.70;78324;1295;3048762;-61
2023/05/09 11:07:33;;;;;;;4.40;1.40;;;;;;;17.69;26.51;100091.30;79317;1300;3012932;-63
2023/05/09 11:10:09;;;;;;;9.20;1.40;;;;;;;17.63;26.69;100090.56;77949;1300;3052673;-63
2023/05/09 11:12:56;;;;;;;4.80;1.40;;;;;;;17.53;27.08;100094.88;77864;1297;3051515;-62
2023/05/09 11:15:26;;;;;;;2.10;0.90;;;;;;;17.53;26.89;100097.76;78045;1299;3069391;-63